Argonia, KS

2:41 PM CDT on July 29, 2015 (GMT -0500)
NonFedAWOS | | Change Station
CLOSE
Current Station
Personal Weather Station
Location: Harper, KS
Elevation: 1426 ft
Nearby Weather Stations

Elev 1426 ft 37.28 °N, 98.04 °W | Updated 26 minutes ago

Partly Cloudy
Partly Cloudy
84 °F
Feels Like 92 °F
N
8
Wind Variable Wind from North
Gusts 0.0 mph

Today
High -- | Low -- °F
--% Chance of Precip.
Yesterday
High -- | Low -- °F
Precip. -- in
6:33 AM 8:41 PM
Waxing Gibbous, 96% visible
Pressure 30.07 in
Visibility 10.0 miles
Clouds Few 5500 ft
Scattered Clouds 10000 ft
Scattered Clouds 15000 ft
Mostly Cloudy 22000 ft
Heat Index 92 °F
Dew Point 75 °F
Humidity 74%
Rainfall in
Snow Depth Not available.
UV 6 out of 12
Pollen 4.20 out of 12
Air Quality Not available.
Flu Activity Not available.
METAR KICT 291853Z 03009KT 10SM FEW055 SCT100 SCT150 BKN220 26/22 A3011 RMK AO2 RAE23 TSE21 SLP181 CB DSNT NE MOV NE SHRA S-SW P0000 T02610222

More Conditions Fewer Conditions

Pressure 30.07 in
Visibility 10.0 miles
Clouds Few 5500 ft
Scattered Clouds 10000 ft
Scattered Clouds 15000 ft
Mostly Cloudy 22000 ft
Heat Index 92 °F
Dew Point 75 °F
Humidity 74%
Rainfall in
Snow Depth Not available.
UV 6 out of 12
Pollen 4.20 out of 12
Air Quality Not available.
Flu Activity Not available.
METAR KICT 291853Z 03009KT 10SM FEW055 SCT100 SCT150 BKN220 26/22 A3011 RMK AO2 RAE23 TSE21 SLP181 CB DSNT NE MOV NE SHRA S-SW P0000 T02610222

More Conditions Fewer Conditions

10-Day Weather Forecast

×

Almanac

Astronomy

Jul. 29, 2015 Rise Set
Actual Time
Civil Twilight
Nautical Twilight
Astronomical Twilight
Moon
Length of Visible Light
Length of Day
Tomorrow will be .
, % of the Moon is Illuminated

Today's Extremes

State Highs State Lows

Community

WunderPhotos

Upload Photos

1,842,156 photos uploaded!

WunderBlogs® & News

Nearby

Air Quality

  Air Quality AQ Index Pollutant
Not available.

Snow Depth

Station Depth Elevation

Earthquake Activity

City Distance Mag. Time & Date
Minimum magnitude displayed is 2.5.

Coastal Water Temperatures

Place Temperature

Stations

Nearby Weather Stations

Station Location Temp. Windchill Dew Point Humidity Wind Precip. Elev Updated Type